sensor_id;sensor_type;location;lat;lon;timestamp;pressure;altitude;pressure_sealevel;temperature;humidity
75650;BME280;64245;51.282;22.494;2023-03-26T00:00:43;98005.41;;;5.39;100.00
75650;BME280;64245;51.282;22.494;2023-03-26T00:03:31;97997.59;;;5.09;100.00
75650;BME280;64245;51.282;22.494;2023-03-26T00:06:06;97994.63;;;5.12;100.00
75650;BME280;64245;51.282;22.494;2023-03-26T00:08:33;97986.09;;;4.99;100.00
75650;BME280;64245;51.282;22.494;2023-03-26T00:11:00;97990.72;;;4.87;100.00
75650;BME280;64245;51.282;22.494;2023-03-26T00:13:26;97992.41;;;4.78;100.00
75650;BME280;64245;51.282;22.494;2023-03-26T00:15:52;97991.13;;;4.82;100.00
75650;BME280;64245;51.282;22.494;2023-03-26T00:18:19;97992.41;;;4.78;100.00
75650;BME280;64245;51.282;22.494;2023-03-26T00:20:46;97980.19;;;4.66;100.00
75650;BME280;64245;51.282;22.494;2023-03-26T00:23:12;97984.28;;;4.61;100.00
75650;BME280;64245;51.282;22.494;2023-03-26T00:25:38;97976.09;;;4.43;100.00
75650;BME280;64245;51.282;22.494;2023-03-26T00:28:06;97974.16;;;4.55;100.00
75650;BME280;64245;51.282;22.494;2023-03-26T00:30:32;97967.72;;;4.57;100.00
75650;BME280;64245;51.282;22.494;2023-03-26T00:33:01;97970.22;;;4.49;100.00
75650;BME280;64245;51.282;22.494;2023-03-26T00:35:26;97966.09;;;4.26;100.00
75650;BME280;64245;51.282;22.494;2023-03-26T00:37:54;97977.59;;;4.16;100.00
75650;BME280;64245;51.282;22.494;2023-03-26T00:40:19;97970.09;;;4.41;100.00
75650;BME280;64245;51.282;22.494;2023-03-26T00:42:45;97969.78;;;4.34;100.00
75650;BME280;64245;51.282;22.494;2023-03-26T00:45:11;97978.22;;;4.59;100.00
75650;BME280;64245;51.282;22.494;2023-03-26T00:47:37;97975.97;;;4.64;100.00
75650;BME280;64245;51.282;22.494;2023-03-26T00:50:05;97981.75;;;4.59;100.00
75650;BME280;64245;51.282;22.494;2023-03-26T00:52:32;97970.22;;;4.49;100.00
75650;BME280;64245;51.282;22.494;2023-03-26T00:54:57;97988.19;;;4.57;100.00
75650;BME280;64245;51.282;22.494;2023-03-26T00:57:23;97983.28;;;4.71;100.00
75650;BME280;64245;51.282;22.494;2023-03-26T00:59:54;97977.97;;;4.81;100.00
75650;BME280;64245;51.282;22.494;2023-03-26T01:02:21;97963.94;;;4.79;100.00
75650;BME280;64245;51.282;22.494;2023-03-26T01:04:53;97973.03;;;4.86;100.00
75650;BME280;64245;51.282;22.494;2023-03-26T01:07:23;97968.69;;;4.75;100.00
75650;BME280;64245;51.282;22.494;2023-03-26T01:09:55;97973.72;;;4.88;100.00
75650;BME280;64245;51.282;22.494;2023-03-26T01:12:27;97967.13;;;4.82;100.00
75650;BME280;64245;51.282;22.494;2023-03-26T01:14:58;97975.00;;;4.84;100.00
75650;BME280;64245;51.282;22.494;2023-03-26T01:17:25;97967.16;;;4.73;100.00
75650;BME280;64245;51.282;22.494;2023-03-26T01:22:39;97969.13;;;4.80;100.00
75650;BME280;64245;51.282;22.494;2023-03-26T01:25:06;97966.00;;;4.85;100.00
75650;BME280;64245;51.282;22.494;2023-03-26T01:27:47;97975.13;;;4.92;100.00
75650;BME280;64245;51.282;22.494;2023-03-26T01:30:36;97975.69;;;4.86;100.00
75650;BME280;64245;51.282;22.494;2023-03-26T01:35:58;97979.22;;;4.96;100.00
75650;BME280;64245;51.282;22.494;2023-03-26T01:38:37;97972.06;;;4.97;100.00
75650;BME280;64245;51.282;22.494;2023-03-26T01:41:16;97964.19;;;4.85;100.00
75650;BME280;64245;51.282;22.494;2023-03-26T01:46:12;97972.31;;;5.03;100.00
75650;BME280;64245;51.282;22.494;2023-03-26T01:48:41;97967.84;;;4.94;100.00
75650;BME280;64245;51.282;22.494;2023-03-26T01:51:09;97949.44;;;4.81;100.00
75650;BME280;64245;51.282;22.494;2023-03-26T01:53:40;97947.63;;;4.72;100.00
75650;BME280;64245;51.282;22.494;2023-03-26T01:56:17;97967.41;;;4.70;100.00
75650;BME280;64245;51.282;22.494;2023-03-26T02:04:03;97956.88;;;4.39;100.00
75650;BME280;64245;51.282;22.494;2023-03-26T02:06:43;97956.03;;;4.29;100.00
75650;BME280;64245;51.282;22.494;2023-03-26T02:09:13;97957.28;;;4.44;100.00
75650;BME280;64245;51.282;22.494;2023-03-26T02:11:42;97947.78;;;4.42;100.00
75650;BME280;64245;51.282;22.494;2023-03-26T02:14:08;97964.16;;;4.28;100.00
75650;BME280;64245;51.282;22.494;2023-03-26T02:16:34;97950.97;;;4.16;100.00
75650;BME280;64245;51.282;22.494;2023-03-26T02:19:00;97955.13;;;4.09;100.00
75650;BME280;64245;51.282;22.494;2023-03-26T02:21:26;97959.47;;;4.01;100.00
75650;BME280;64245;51.282;22.494;2023-03-26T02:23:55;97956.97;;;4.09;100.00
75650;BME280;64245;51.282;22.494;2023-03-26T02:26:29;97958.09;;;4.16;100.00
75650;BME280;64245;51.282;22.494;2023-03-26T02:28:56;97947.19;;;4.19;100.00
75650;BME280;64245;51.282;22.494;2023-03-26T02:31:22;97931.28;;;3.98;100.00
75650;BME280;64245;51.282;22.494;2023-03-26T02:33:52;97956.38;;;4.05;100.00
75650;BME280;64245;51.282;22.494;2023-03-26T02:36:18;97952.16;;;3.93;100.00
75650;BME280;64245;51.282;22.494;2023-03-26T02:38:49;97952.19;;;4.03;100.00
75650;BME280;64245;51.282;22.494;2023-03-26T02:41:15;97941.38;;;3.95;100.00
75650;BME280;64245;51.282;22.494;2023-03-26T02:43:41;97951.03;;;3.96;100.00
75650;BME280;64245;51.282;22.494;2023-03-26T02:46:07;97934.19;;;3.86;100.00
75650;BME280;64245;51.282;22.494;2023-03-26T02:48:33;97941.38;;;3.95;100.00
75650;BME280;64245;51.282;22.494;2023-03-26T02:51:00;97948.19;;;3.78;100.00
75650;BME280;64245;51.282;22.494;2023-03-26T02:53:26;97952.66;;;3.77;100.00
75650;BME280;64245;51.282;22.494;2023-03-26T02:55:55;97957.09;;;3.98;100.00
75650;BME280;64245;51.282;22.494;2023-03-26T02:58:21;97953.03;;;4.13;100.00
75650;BME280;64245;51.282;22.494;2023-03-26T03:00:50;97952.59;;;4.08;100.00
75650;BME280;64245;51.282;22.494;2023-03-26T03:03:24;97942.03;;;3.87;100.00
75650;BME280;64245;51.282;22.494;2023-03-26T03:05:51;97945.28;;;3.91;100.00
75650;BME280;64245;51.282;22.494;2023-03-26T03:08:21;97940.56;;;4.04;100.00
75650;BME280;64245;51.282;22.494;2023-03-26T03:10:59;97943.84;;;3.87;100.00
75650;BME280;64245;51.282;22.494;2023-03-26T03:13:26;97951.97;;;3.85;100.00
75650;BME280;64245;51.282;22.494;2023-03-26T03:15:52;97947.28;;;3.98;100.00
75650;BME280;64245;51.282;22.494;2023-03-26T03:18:18;97941.84;;;3.69;100.00
75650;BME280;64245;51.282;22.494;2023-03-26T03:20:44;97943.13;;;3.75;100.00
75650;BME280;64245;51.282;22.494;2023-03-26T03:23:10;97943.66;;;3.69;100.00
75650;BME280;64245;51.282;22.494;2023-03-26T03:25:35;97950.94;;;3.67;100.00
75650;BME280;64245;51.282;22.494;2023-03-26T03:28:03;97947.16;;;3.60;100.00
75650;BME280;64245;51.282;22.494;2023-03-26T03:30:29;97945.47;;;3.59;100.00
75650;BME280;64245;51.282;22.494;2023-03-26T03:32:55;97951.44;;;3.51;100.00
75650;BME280;64245;51.282;22.494;2023-03-26T03:35:25;97960.75;;;3.66;100.00
75650;BME280;64245;51.282;22.494;2023-03-26T03:37:55;97960.31;;;3.61;100.00
75650;BME280;64245;51.282;22.494;2023-03-26T03:40:21;97964.47;;;3.85;100.00
75650;BME280;64245;51.282;22.494;2023-03-26T03:42:47;97963.97;;;4.00;100.00
75650;BME280;64245;51.282;22.494;2023-03-26T03:45:12;97968.19;;;4.03;100.00
75650;BME280;64245;51.282;22.494;2023-03-26T03:47:38;97968.19;;;4.12;100.00
75650;BME280;64245;51.282;22.494;2023-03-26T03:50:05;97952.59;;;4.08;100.00
75650;BME280;64245;51.282;22.494;2023-03-26T03:52:31;97962.00;;;4.12;100.00
75650;BME280;64245;51.282;22.494;2023-03-26T03:54:56;97961.47;;;4.18;100.00
75650;BME280;64245;51.282;22.494;2023-03-26T03:57:28;97949.84;;;4.19;100.00
75650;BME280;64245;51.282;22.494;2023-03-26T03:59:55;97949.44;;;4.33;100.00
75650;BME280;64245;51.282;22.494;2023-03-26T04:02:24;97955.03;;;4.30;100.00
75650;BME280;64245;51.282;22.494;2023-03-26T04:04:55;97963.88;;;4.31;100.00
75650;BME280;64245;51.282;22.494;2023-03-26T04:07:26;97951.56;;;4.39;100.00
75650;BME280;64245;51.282;22.494;2023-03-26T04:09:52;97955.06;;;4.40;100.00
75650;BME280;64245;51.282;22.494;2023-03-26T04:12:18;97955.19;;;4.38;100.00
75650;BME280;64245;51.282;22.494;2023-03-26T04:14:44;97957.69;;;4.30;100.00
75650;BME280;64245;51.282;22.494;2023-03-26T04:17:09;97950.13;;;4.26;100.00
75650;BME280;64245;51.282;22.494;2023-03-26T04:19:38;97962.72;;;4.24;100.00
75650;BME280;64245;51.282;22.494;2023-03-26T04:22:04;97968.41;;;4.40;100.00
75650;BME280;64245;51.282;22.494;2023-03-26T04:24:31;97955.59;;;4.34;100.00
75650;BME280;64245;51.282;22.494;2023-03-26T04:27:03;97954.63;;;4.44;100.00
75650;BME280;64245;51.282;22.494;2023-03-26T04:29:36;97951.56;;;4.39;100.00
75650;BME280;64245;51.282;22.494;2023-03-26T04:32:02;97956.88;;;4.49;100.00
75650;BME280;64245;51.282;22.494;2023-03-26T04:34:32;97951.81;;;4.46;99.98
75650;BME280;64245;51.282;22.494;2023-03-26T04:37:01;97955.78;;;4.61;100.00
75650;BME280;64245;51.282;22.494;2023-03-26T04:39:26;97955.19;;;4.67;98.86
75650;BME280;64245;51.282;22.494;2023-03-26T04:41:54;97943.28;;;4.62;98.16
75650;BME280;64245;51.282;22.494;2023-03-26T04:44:20;97966.16;;;4.83;98.74
75650;BME280;64245;51.282;22.494;2023-03-26T04:46:48;97959.97;;;4.83;97.32
75650;BME280;64245;51.282;22.494;2023-03-26T04:49:13;97948.31;;;4.84;96.98
75650;BME280;64245;51.282;22.494;2023-03-26T04:51:40;97971.78;;;5.00;96.94
75650;BME280;64245;51.282;22.494;2023-03-26T04:54:06;97968.38;;;5.07;95.87
75650;BME280;64245;51.282;22.494;2023-03-26T04:56:45;97966.00;;;5.04;96.63
75650;BME280;64245;51.282;22.494;2023-03-26T04:59:32;97965.84;;;5.06;97.00
75650;BME280;64245;51.282;22.494;2023-03-26T05:02:01;97955.03;;;5.07;97.39
75650;BME280;64245;51.282;22.494;2023-03-26T05:04:27;97964.88;;;5.16;95.42
75650;BME280;64245;51.282;22.494;2023-03-26T05:06:58;97968.81;;;5.12;95.23
75650;BME280;64245;51.282;22.494;2023-03-26T05:09:24;97969.50;;;5.14;96.19
75650;BME280;64245;51.282;22.494;2023-03-26T05:11:50;97966.28;;;5.11;94.89
75650;BME280;64245;51.282;22.494;2023-03-26T05:14:17;97958.69;;;5.16;95.42
75650;BME280;64245;51.282;22.494;2023-03-26T05:16:45;97967.94;;;5.21;94.64
75650;BME280;64245;51.282;22.494;2023-03-26T05:19:12;97965.81;;;5.25;94.79
75650;BME280;64245;51.282;22.494;2023-03-26T05:21:38;97963.19;;;5.15;94.40
75650;BME280;64245;51.282;22.494;2023-03-26T05:24:04;97973.53;;;5.28;94.36
75650;BME280;64245;51.282;22.494;2023-03-26T05:26:31;97976.22;;;5.38;93.78
75650;BME280;64245;51.282;22.494;2023-03-26T05:28:57;97964.13;;;5.34;93.84
75650;BME280;64245;51.282;22.494;2023-03-26T05:31:24;97966.38;;;5.38;94.28
75650;BME280;64245;51.282;22.494;2023-03-26T05:33:51;97964.38;;;5.40;94.70
75650;BME280;64245;51.282;22.494;2023-03-26T05:36:17;97964.69;;;5.37;95.35
75650;BME280;64245;51.282;22.494;2023-03-26T05:38:44;97968.00;;;5.49;94.30
75650;BME280;64245;51.282;22.494;2023-03-26T05:41:12;97970.53;;;5.50;93.88
75650;BME280;64245;51.282;22.494;2023-03-26T05:43:38;97964.91;;;5.53;92.77
75650;BME280;64245;51.282;22.494;2023-03-26T05:46:04;97957.34;;;5.49;94.22
75650;BME280;64245;51.282;22.494;2023-03-26T05:48:29;97968.53;;;5.62;94.98
75650;BME280;64245;51.282;22.494;2023-03-26T05:50:57;97964.72;;;5.65;94.23
75650;BME280;64245;51.282;22.494;2023-03-26T05:53:24;97971.47;;;5.69;95.24
75650;BME280;64245;51.282;22.494;2023-03-26T05:55:51;97974.69;;;5.72;92.53
75650;BME280;64245;51.282;22.494;2023-03-26T05:58:26;97961.75;;;5.68;92.79
75650;BME280;64245;51.282;22.494;2023-03-26T06:01:04;97959.94;;;5.68;93.01
75650;BME280;64245;51.282;22.494;2023-03-26T06:03:37;97952.06;;;5.67;92.76
75650;BME280;64245;51.282;22.494;2023-03-26T06:06:08;97961.88;;;5.76;94.61
75650;BME280;64245;51.282;22.494;2023-03-26T06:08:35;97964.56;;;5.76;92.33
75650;BME280;64245;51.282;22.494;2023-03-26T06:11:03;97959.66;;;5.62;93.31
75650;BME280;64245;51.282;22.494;2023-03-26T06:13:29;97976.94;;;5.67;94.26
75650;BME280;64245;51.282;22.494;2023-03-26T06:15:56;97966.97;;;5.69;93.27
75650;BME280;64245;51.282;22.494;2023-03-26T06:18:23;97963.81;;;5.83;92.83
75650;BME280;64245;51.282;22.494;2023-03-26T06:20:49;97966.34;;;5.95;92.48
75650;BME280;64245;51.282;22.494;2023-03-26T06:23:16;97975.38;;;6.11;91.52
75650;BME280;64245;51.282;22.494;2023-03-26T06:25:42;97970.19;;;6.10;92.62
75650;BME280;64245;51.282;22.494;2023-03-26T06:28:11;97968.59;;;6.17;90.37
75650;BME280;64245;51.282;22.494;2023-03-26T06:30:37;97958.22;;;6.14;92.82
75650;BME280;64245;51.282;22.494;2023-03-26T06:33:02;97965.38;;;6.13;90.64
75650;BME280;64245;51.282;22.494;2023-03-26T06:35:29;97956.41;;;6.05;91.44
75650;BME280;64245;51.282;22.494;2023-03-26T06:37:55;97957.75;;;6.18;92.18
75650;BME280;64245;51.282;22.494;2023-03-26T06:40:21;97948.88;;;6.18;90.05
75650;BME280;64245;51.282;22.494;2023-03-26T06:42:47;97961.44;;;6.35;91.72
75650;BME280;64245;51.282;22.494;2023-03-26T06:45:13;97955.34;;;6.43;90.62
75650;BME280;64245;51.282;22.494;2023-03-26T06:47:38;97955.06;;;6.64;91.13
75650;BME280;64245;51.282;22.494;2023-03-26T06:50:05;97967.75;;;6.62;90.29
75650;BME280;64245;51.282;22.494;2023-03-26T06:52:30;97955.50;;;6.59;88.71
75650;BME280;64245;51.282;22.494;2023-03-26T06:54:56;97963.91;;;6.82;88.02
75650;BME280;64245;51.282;22.494;2023-03-26T06:57:22;97965.34;;;6.94;87.46
75650;BME280;64245;51.282;22.494;2023-03-26T06:59:48;97965.81;;;7.07;85.67
75650;BME280;64245;51.282;22.494;2023-03-26T07:02:13;97962.59;;;7.04;87.44
75650;BME280;64245;51.282;22.494;2023-03-26T07:04:40;97968.47;;;7.25;86.46
75650;BME280;64245;51.282;22.494;2023-03-26T07:07:05;97941.31;;;7.20;86.79
75650;BME280;64245;51.282;22.494;2023-03-26T07:09:31;97962.53;;;7.39;85.08
75650;BME280;64245;51.282;22.494;2023-03-26T07:11:57;97974.56;;;7.35;84.50
75650;BME280;64245;51.282;22.494;2023-03-26T07:14:23;97956.66;;;7.36;86.55
75650;BME280;64245;51.282;22.494;2023-03-26T07:16:52;97972.63;;;7.45;85.87
75650;BME280;64245;51.282;22.494;2023-03-26T07:19:19;97951.09;;;7.29;86.97
75650;BME280;64245;51.282;22.494;2023-03-26T07:21:44;97961.16;;;7.35;84.59
75650;BME280;64245;51.282;22.494;2023-03-26T07:24:12;97965.97;;;7.32;84.36
75650;BME280;64245;51.282;22.494;2023-03-26T07:26:50;97960.28;;;7.26;87.12
75650;BME280;64245;51.282;22.494;2023-03-26T07:29:31;97961.81;;;7.29;85.70
75650;BME280;64245;51.282;22.494;2023-03-26T07:32:07;97964.28;;;7.48;86.32
75650;BME280;64245;51.282;22.494;2023-03-26T07:34:45;97961.69;;;7.39;84.55
75650;BME280;64245;51.282;22.494;2023-03-26T07:40:38;97966.59;;;7.69;86.23
75650;BME280;64245;51.282;22.494;2023-03-26T07:43:37;97947.06;;;7.85;83.30
75650;BME280;64245;51.282;22.494;2023-03-26T07:46:09;97954.78;;;7.88;84.62
75650;BME280;64245;51.282;22.494;2023-03-26T07:48:44;97957.97;;;7.91;85.32
75650;BME280;64245;51.282;22.494;2023-03-26T07:51:15;97952.44;;;7.85;84.23
75650;BME280;64245;51.282;22.494;2023-03-26T07:53:43;97956.63;;;7.87;83.34
75650;BME280;64245;51.282;22.494;2023-03-26T07:56:17;97951.28;;;7.95;84.09
75650;BME280;64245;51.282;22.494;2023-03-26T08:06:37;97951.56;;;8.18;80.89
75650;BME280;64245;51.282;22.494;2023-03-26T08:11:58;97948.50;;;8.05;81.64
75650;BME280;64245;51.282;22.494;2023-03-26T08:17:42;97951.59;;;7.84;81.95
75650;BME280;64245;51.282;22.494;2023-03-26T08:20:18;97951.09;;;7.89;82.41
75650;BME280;64245;51.282;22.494;2023-03-26T08:22:54;97953.28;;;7.85;82.24
75650;BME280;64245;51.282;22.494;2023-03-26T08:25:32;97946.81;;;8.04;83.03
75650;BME280;64245;51.282;22.494;2023-03-26T08:30:39;97941.59;;;8.37;80.08
75650;BME280;64245;51.282;22.494;2023-03-26T08:33:14;97948.56;;;8.29;79.86
75650;BME280;64245;51.282;22.494;2023-03-26T08:35:43;97933.72;;;8.43;80.47
75650;BME280;64245;51.282;22.494;2023-03-26T08:38:15;97939.25;;;8.50;81.81
75650;BME280;64245;51.282;22.494;2023-03-26T08:55:02;97927.06;;;9.12;74.80
75650;BME280;64245;51.282;22.494;2023-03-26T09:06:21;97927.25;;;9.03;76.38
75650;BME280;64245;51.282;22.494;2023-03-26T09:20:27;97920.88;;;9.20;74.65
75650;BME280;64245;51.282;22.494;2023-03-26T09:31:46;97913.47;;;9.85;70.80
75650;BME280;64245;51.282;22.494;2023-03-26T09:34:26;97899.31;;;10.38;69.87
75650;BME280;64245;51.282;22.494;2023-03-26T09:39:38;97884.84;;;10.62;67.52
75650;BME280;64245;51.282;22.494;2023-03-26T09:50:51;97893.81;;;9.85;70.16
75650;BME280;64245;51.282;22.494;2023-03-26T09:53:43;97868.44;;;9.32;73.51
75650;BME280;64245;51.282;22.494;2023-03-26T09:56:22;97878.41;;;8.99;76.69
75650;BME280;64245;51.282;22.494;2023-03-26T10:09:42;97883.44;;;8.70;85.01
75650;BME280;64245;51.282;22.494;2023-03-26T10:12:23;97881.25;;;9.14;79.51
75650;BME280;64245;51.282;22.494;2023-03-26T10:17:31;97851.75;;;9.61;74.38
75650;BME280;64245;51.282;22.494;2023-03-26T10:36:31;97815.91;;;11.14;68.60
75650;BME280;64245;51.282;22.494;2023-03-26T10:47:27;97823.78;;;12.03;62.84
75650;BME280;64245;51.282;22.494;2023-03-26T10:52:48;97844.47;;;13.52;59.90
75650;BME280;64245;51.282;22.494;2023-03-26T10:55:21;97813.78;;;13.73;56.16
75650;BME280;64245;51.282;22.494;2023-03-26T10:57:57;97831.00;;;14.00;60.28
75650;BME280;64245;51.282;22.494;2023-03-26T11:00:26;97832.59;;;12.97;54.84
75650;BME280;64245;51.282;22.494;2023-03-26T11:03:19;97851.03;;;12.44;55.79
75650;BME280;64245;51.282;22.494;2023-03-26T11:08:47;97844.06;;;11.40;58.54
75650;BME280;64245;51.282;22.494;2023-03-26T11:14:01;97843.13;;;13.35;57.11
75650;BME280;64245;51.282;22.494;2023-03-26T11:25:00;97839.25;;;11.80;59.13
75650;BME280;64245;51.282;22.494;2023-03-26T11:32:56;97847.53;;;10.97;62.29
75650;BME280;64245;51.282;22.494;2023-03-26T11:35:48;97839.03;;;10.70;62.98
75650;BME280;64245;51.282;22.494;2023-03-26T11:38:20;97843.97;;;10.82;62.82
75650;BME280;64245;51.282;22.494;2023-03-26T11:40:49;97845.13;;;10.64;64.90
75650;BME280;64245;51.282;22.494;2023-03-26T11:43:37;97841.56;;;10.87;61.62
75650;BME280;64245;51.282;22.494;2023-03-26T11:46:06;97811.59;;;10.90;61.55
75650;BME280;64245;51.282;22.494;2023-03-26T11:48:41;97829.63;;;10.66;61.44
75650;BME280;64245;51.282;22.494;2023-03-26T11:51:13;97847.28;;;10.69;63.02
75650;BME280;64245;51.282;22.494;2023-03-26T11:53:42;97841.66;;;10.33;62.87
75650;BME280;64245;51.282;22.494;2023-03-26T12:02:15;97858.53;;;9.41;75.90
75650;BME280;64245;51.282;22.494;2023-03-26T12:04:24;97826.91;;;8.79;82.55
75650;BME280;64245;51.282;22.494;2023-03-26T12:07:03;97848.72;;;8.60;79.43
75650;BME280;64245;51.282;22.494;2023-03-26T12:09:31;97825.56;;;8.35;83.17
75650;BME280;64245;51.282;22.494;2023-03-26T12:12:02;97845.38;;;8.58;83.65
75650;BME280;64245;51.282;22.494;2023-03-26T12:14:31;97852.59;;;8.82;83.09
75650;BME280;64245;51.282;22.494;2023-03-26T12:17:06;97860.47;;;8.75;83.46
75650;BME280;64245;51.282;22.494;2023-03-26T12:19:38;97867.66;;;8.50;83.35
75650;BME280;64245;51.282;22.494;2023-03-26T12:22:04;97850.06;;;8.80;80.93
75650;BME280;64245;51.282;22.494;2023-03-26T12:24:33;97854.28;;;9.93;80.75
75650;BME280;64245;51.282;22.494;2023-03-26T12:27:05;97841.00;;;10.00;78.98
75650;BME280;64245;51.282;22.494;2023-03-26T12:29:51;97839.88;;;11.23;76.09
75650;BME280;64245;51.282;22.494;2023-03-26T12:32:19;97849.41;;;11.93;71.83
75650;BME280;64245;51.282;22.494;2023-03-26T12:34:46;97837.59;;;12.30;71.94
75650;BME280;64245;51.282;22.494;2023-03-26T12:37:34;97843.50;;;12.61;64.54
75650;BME280;64245;51.282;22.494;2023-03-26T12:40:22;97845.19;;;14.08;67.73
75650;BME280;64245;51.282;22.494;2023-03-26T12:42:52;97840.34;;;13.00;63.08
75650;BME280;64245;51.282;22.494;2023-03-26T12:45:26;97841.47;;;12.06;64.64
75650;BME280;64245;51.282;22.494;2023-03-26T12:47:53;97841.94;;;11.65;66.25
75650;BME280;64245;51.282;22.494;2023-03-26T12:50:22;97823.72;;;10.86;70.37
75650;BME280;64245;51.282;22.494;2023-03-26T12:53:14;97832.06;;;11.14;70.20
75650;BME280;64245;51.282;22.494;2023-03-26T13:12:55;97799.06;;;11.56;63.74
75650;BME280;64245;51.282;22.494;2023-03-26T13:15:31;97823.16;;;13.08;60.21
75650;BME280;64245;51.282;22.494;2023-03-26T13:37:07;97864.81;;;8.52;74.34
75650;BME280;64245;51.282;22.494;2023-03-26T13:43:04;97858.88;;;8.24;77.89
75650;BME280;64245;51.282;22.494;2023-03-26T13:45:58;97852.84;;;7.72;78.18
75650;BME280;64245;51.282;22.494;2023-03-26T13:48:36;97849.75;;;7.16;82.65
75650;BME280;64245;51.282;22.494;2023-03-26T13:51:30;97853.22;;;7.69;82.20
75650;BME280;64245;51.282;22.494;2023-03-26T13:56:29;97833.47;;;8.44;79.39
75650;BME280;64245;51.282;22.494;2023-03-26T13:59:10;97825.34;;;8.04;80.26
75650;BME280;64245;51.282;22.494;2023-03-26T14:01:43;97830.88;;;9.16;77.13
75650;BME280;64245;51.282;22.494;2023-03-26T14:04:19;97806.69;;;11.23;71.17
75650;BME280;64245;51.282;22.494;2023-03-26T14:09:46;97816.22;;;10.58;70.24
75650;BME280;64245;51.282;22.494;2023-03-26T14:12:36;97821.66;;;11.55;68.18
75650;BME280;64245;51.282;22.494;2023-03-26T14:15:04;97816.94;;;12.22;64.74
75650;BME280;64245;51.282;22.494;2023-03-26T14:17:36;97817.69;;;13.01;60.84
75650;BME280;64245;51.282;22.494;2023-03-26T14:31:05;97826.25;;;10.87;64.32
75650;BME280;64245;51.282;22.494;2023-03-26T14:33:51;97809.13;;;12.13;62.20
75650;BME280;64245;51.282;22.494;2023-03-26T14:36:45;97809.56;;;12.31;60.11
75650;BME280;64245;51.282;22.494;2023-03-26T14:41:55;97814.69;;;11.46;63.50
75650;BME280;64245;51.282;22.494;2023-03-26T14:44:37;97805.03;;;11.51;63.49
75650;BME280;64245;51.282;22.494;2023-03-26T14:47:20;97806.19;;;10.90;65.22
75650;BME280;64245;51.282;22.494;2023-03-26T14:52:19;97807.34;;;11.39;62.37
75650;BME280;64245;51.282;22.494;2023-03-26T14:54:51;97799.66;;;11.51;62.47
75650;BME280;64245;51.282;22.494;2023-03-26T15:11:12;97794.53;;;11.12;63.17
75650;BME280;64245;51.282;22.494;2023-03-26T15:17:08;97790.72;;;11.06;63.54
75650;BME280;64245;51.282;22.494;2023-03-26T15:20:28;97775.19;;;11.23;62.29
75650;BME280;64245;51.282;22.494;2023-03-26T15:29:07;97789.47;;;12.19;59.92
75650;BME280;64245;51.282;22.494;2023-03-26T15:40:46;97786.88;;;10.49;64.18
75650;BME280;64245;51.282;22.494;2023-03-26T15:43:17;97796.56;;;10.35;63.85
75650;BME280;64245;51.282;22.494;2023-03-26T15:45:53;97794.19;;;10.09;64.23
75650;BME280;64245;51.282;22.494;2023-03-26T15:48:53;97803.50;;;9.98;65.74
75650;BME280;64245;51.282;22.494;2023-03-26T15:54:44;97815.09;;;9.99;66.29
75650;BME280;64245;51.282;22.494;2023-03-26T16:00:00;97806.25;;;9.82;67.08
75650;BME280;64245;51.282;22.494;2023-03-26T16:02:52;97813.38;;;9.75;66.91
75650;BME280;64245;51.282;22.494;2023-03-26T16:05:24;97813.22;;;9.77;67.71
75650;BME280;64245;51.282;22.494;2023-03-26T16:10:53;97807.75;;;9.62;68.63
75650;BME280;64245;51.282;22.494;2023-03-26T16:13:37;97821.53;;;9.51;68.47
75650;BME280;64245;51.282;22.494;2023-03-26T16:26:16;97826.00;;;9.19;71.65
75650;BME280;64245;51.282;22.494;2023-03-26T16:34:17;97826.25;;;8.61;74.34
75650;BME280;64245;51.282;22.494;2023-03-26T16:36:44;97817.88;;;8.40;75.40
75650;BME280;64245;51.282;22.494;2023-03-26T16:39:20;97816.97;;;8.15;77.79
75650;BME280;64245;51.282;22.494;2023-03-26T16:47:26;97827.53;;;7.58;81.21
75650;BME280;64245;51.282;22.494;2023-03-26T16:55:19;97812.41;;;6.81;82.96
75650;BME280;64245;51.282;22.494;2023-03-26T16:58:02;97830.44;;;6.79;84.51
75650;BME280;64245;51.282;22.494;2023-03-26T17:03:22;97832.69;;;6.66;86.58
75650;BME280;64245;51.282;22.494;2023-03-26T17:09:14;97837.53;;;6.44;87.94
75650;BME280;64245;51.282;22.494;2023-03-26T17:11:36;97827.28;;;6.40;88.68
75650;BME280;64245;51.282;22.494;2023-03-26T17:17:08;97839.03;;;6.65;86.12
75650;BME280;64245;51.282;22.494;2023-03-26T17:19:46;97849.13;;;6.71;85.26
75650;BME280;64245;51.282;22.494;2023-03-26T17:25:36;97846.53;;;6.43;87.05
75650;BME280;64245;51.282;22.494;2023-03-26T17:30:51;97865.28;;;6.26;88.73
75650;BME280;64245;51.282;22.494;2023-03-26T17:41:01;97840.28;;;5.72;89.34
75650;BME280;64245;51.282;22.494;2023-03-26T17:46:33;97861.84;;;5.88;88.66
75650;BME280;64245;51.282;22.494;2023-03-26T17:54:21;97865.66;;;5.58;90.68
75650;BME280;64245;51.282;22.494;2023-03-26T17:56:50;97859.25;;;5.51;89.99
75650;BME280;64245;51.282;22.494;2023-03-26T17:59:22;97854.47;;;5.45;90.92
75650;BME280;64245;51.282;22.494;2023-03-26T18:01:53;97875.84;;;5.45;91.40
75650;BME280;64245;51.282;22.494;2023-03-26T18:04:36;97867.03;;;5.35;92.00
75650;BME280;64245;51.282;22.494;2023-03-26T18:10:16;97885.47;;;5.28;93.96
75650;BME280;64245;51.282;22.494;2023-03-26T18:15:26;97882.81;;;5.83;89.46
75650;BME280;64245;51.282;22.494;2023-03-26T18:18:01;97874.56;;;5.76;90.42
75650;BME280;64245;51.282;22.494;2023-03-26T18:20:34;97856.31;;;5.72;90.08
75650;BME280;64245;51.282;22.494;2023-03-26T18:23:08;97879.28;;;5.92;89.69
75650;BME280;64245;51.282;22.494;2023-03-26T18:25:35;97863.06;;;5.76;90.20
75650;BME280;64245;51.282;22.494;2023-03-26T18:28:01;97853.25;;;5.67;90.02
75650;BME280;64245;51.282;22.494;2023-03-26T18:30:28;97855.47;;;5.71;90.46
75650;BME280;64245;51.282;22.494;2023-03-26T18:33:00;97879.16;;;5.84;89.50
75650;BME280;64245;51.282;22.494;2023-03-26T18:35:40;97876.22;;;5.77;90.86